createdAt,value
2022-10-05T00:00:10.500Z,100.00
2022-10-05T00:02:38.308Z,100.00
2022-10-05T00:05:13.323Z,100.00
2022-10-05T00:07:41.082Z,100.00
2022-10-05T00:10:12.071Z,100.00
2022-10-05T00:12:39.765Z,100.00
2022-10-05T00:15:10.679Z,100.00
2022-10-05T00:17:38.409Z,100.00
2022-10-05T00:20:26.179Z,100.00
2022-10-05T00:23:01.929Z,100.00
2022-10-05T00:25:29.639Z,100.00
2022-10-05T00:27:59.240Z,100.00
2022-10-05T00:30:32.132Z,100.00
2022-10-05T00:33:00.144Z,100.00
2022-10-05T00:35:30.323Z,100.00
2022-10-05T00:37:58.074Z,100.00
2022-10-05T00:40:52.050Z,100.00
2022-10-05T00:43:34.557Z,100.00
2022-10-05T00:46:27.131Z,100.00
2022-10-05T00:48:58.229Z,100.00
2022-10-05T00:51:28.343Z,100.00
2022-10-05T00:54:07.036Z,100.00
2022-10-05T00:56:44.139Z,100.00
2022-10-05T00:59:21.057Z,100.00
2022-10-05T01:02:02.743Z,100.00
2022-10-05T01:04:49.785Z,100.00
2022-10-05T01:07:23.447Z,100.00
2022-10-05T01:09:58.851Z,100.00
2022-10-05T01:12:39.283Z,100.00
2022-10-05T01:15:14.234Z,100.00
2022-10-05T01:17:57.712Z,100.00
2022-10-05T01:20:37.048Z,100.00
2022-10-05T01:23:28.920Z,100.00
2022-10-05T01:26:33.402Z,100.00
2022-10-05T01:29:19.098Z,100.00
2022-10-05T01:31:55.999Z,100.00
2022-10-05T01:34:23.701Z,100.00
2022-10-05T01:36:58.108Z,100.00
2022-10-05T01:39:28.549Z,100.00
2022-10-05T01:42:25.606Z,100.00
2022-10-05T01:44:53.268Z,100.00
2022-10-05T01:47:31.553Z,100.00
2022-10-05T01:50:01.672Z,100.00
2022-10-05T01:52:57.838Z,100.00
2022-10-05T01:56:07.016Z,100.00
2022-10-05T01:58:59.130Z,100.00
2022-10-05T02:01:44.653Z,100.00
2022-10-05T02:04:59.900Z,100.00
2022-10-05T02:07:22.196Z,100.00
2022-10-05T02:09:55.263Z,100.00
2022-10-05T02:12:23.483Z,100.00
2022-10-05T02:14:53.760Z,100.00
2022-10-05T02:17:25.899Z,100.00
2022-10-05T02:19:57.275Z,100.00
2022-10-05T02:22:31.980Z,100.00
2022-10-05T02:25:03.406Z,100.00
2022-10-05T02:27:32.936Z,100.00
2022-10-05T02:30:02.871Z,100.00
2022-10-05T02:32:34.501Z,100.00
2022-10-05T02:35:10.255Z,100.00
2022-10-05T02:37:57.058Z,100.00
2022-10-05T02:40:27.305Z,100.00
2022-10-05T02:43:07.001Z,100.00
2022-10-05T02:45:53.655Z,100.00
2022-10-05T02:48:36.422Z,100.00
2022-10-05T02:51:26.079Z,100.00
2022-10-05T02:54:23.586Z,100.00
2022-10-05T02:57:09.120Z,100.00
2022-10-05T02:59:46.869Z,100.00
2022-10-05T03:02:35.568Z,100.00
2022-10-05T03:05:23.396Z,100.00
2022-10-05T03:08:06.679Z,100.00
2022-10-05T03:11:05.325Z,100.00
2022-10-05T03:13:49.558Z,100.00
2022-10-05T03:16:35.729Z,100.00
2022-10-05T03:19:13.205Z,100.00
2022-10-05T03:21:43.952Z,100.00
2022-10-05T03:24:40.020Z,100.00
2022-10-05T03:27:16.885Z,100.00
2022-10-05T03:29:49.772Z,100.00
2022-10-05T03:32:31.603Z,100.00
2022-10-05T03:35:19.146Z,100.00
2022-10-05T03:37:55.638Z,100.00
2022-10-05T03:40:28.429Z,100.00
2022-10-05T03:43:02.074Z,100.00
2022-10-05T03:45:44.983Z,100.00
2022-10-05T03:48:15.835Z,100.00
2022-10-05T03:50:52.278Z,100.00
2022-10-05T03:53:21.545Z,100.00
2022-10-05T03:55:56.822Z,100.00
2022-10-05T03:58:50.499Z,100.00
2022-10-05T04:01:20.776Z,100.00
2022-10-05T04:03:51.238Z,100.00
2022-10-05T04:06:38.504Z,100.00
2022-10-05T04:09:14.214Z,100.00
2022-10-05T04:11:48.090Z,100.00
2022-10-05T04:14:18.480Z,100.00
2022-10-05T04:16:48.743Z,100.00
2022-10-05T04:19:17.153Z,100.00
2022-10-05T04:22:07.862Z,100.00
2022-10-05T04:24:54.361Z,100.00
2022-10-05T04:27:29.208Z,100.00
2022-10-05T04:30:03.198Z,100.00
2022-10-05T04:32:49.284Z,100.00
2022-10-05T04:35:35.384Z,100.00
2022-10-05T04:38:39.130Z,100.00
2022-10-05T04:41:21.921Z,100.00
2022-10-05T04:44:07.824Z,100.00
2022-10-05T04:46:54.551Z,100.00
2022-10-05T04:49:24.896Z,100.00
2022-10-05T04:52:30.370Z,100.00
2022-10-05T04:55:23.660Z,100.00
2022-10-05T04:57:57.914Z,100.00
2022-10-05T05:01:03.296Z,100.00
2022-10-05T05:03:52.182Z,100.00
2022-10-05T05:09:34.491Z,100.00
2022-10-05T05:12:09.115Z,100.00
2022-10-05T05:14:48.126Z,100.00
2022-10-05T05:17:19.157Z,100.00
2022-10-05T05:20:00.936Z,100.00
2022-10-05T05:22:52.013Z,100.00
2022-10-05T05:25:44.571Z,100.00
2022-10-05T05:28:21.491Z,100.00
2022-10-05T05:31:19.985Z,100.00
2022-10-05T05:34:13.000Z,100.00
2022-10-05T05:36:56.320Z,100.00
2022-10-05T05:39:34.567Z,100.00
2022-10-05T05:42:21.787Z,100.00
2022-10-05T05:44:52.085Z,100.00
2022-10-05T05:47:27.692Z,100.00
2022-10-05T05:50:19.765Z,100.00
2022-10-05T05:52:50.403Z,100.00
2022-10-05T05:55:30.310Z,100.00
2022-10-05T05:58:10.691Z,100.00
2022-10-05T06:00:52.039Z,100.00
2022-10-05T06:03:30.050Z,100.00
2022-10-05T06:06:00.444Z,100.00
2022-10-05T06:08:36.035Z,100.00
2022-10-05T06:11:10.143Z,100.00
2022-10-05T06:13:41.604Z,100.00
2022-10-05T06:16:30.033Z,100.00
2022-10-05T06:19:00.732Z,100.00
2022-10-05T06:21:51.421Z,100.00
2022-10-05T06:24:28.684Z,100.00
2022-10-05T06:27:21.762Z,100.00
2022-10-05T06:30:09.403Z,100.00
2022-10-05T06:33:05.059Z,100.00
2022-10-05T06:35:43.271Z,100.00
2022-10-05T06:38:34.142Z,100.00
2022-10-05T06:41:10.636Z,100.00
2022-10-05T06:43:53.317Z,100.00
2022-10-05T06:46:35.584Z,100.00
2022-10-05T06:49:22.577Z,100.00
2022-10-05T06:52:34.536Z,100.00
2022-10-05T06:55:14.406Z,100.00
2022-10-05T06:57:42.129Z,100.00
2022-10-05T07:00:22.782Z,100.00
2022-10-05T07:03:02.127Z,100.00
2022-10-05T07:05:56.497Z,100.00
2022-10-05T07:08:45.466Z,100.00
2022-10-05T07:11:44.268Z,100.00
2022-10-05T07:14:51.964Z,100.00
2022-10-05T07:17:26.537Z,100.00
2022-10-05T07:19:56.936Z,100.00
2022-10-05T07:22:47.757Z,100.00
2022-10-05T07:25:29.371Z,100.00
2022-10-05T07:28:12.246Z,100.00
2022-10-05T07:30:45.249Z,100.00
2022-10-05T07:33:20.644Z,100.00
2022-10-05T07:36:26.343Z,100.00
2022-10-05T07:39:14.061Z,100.00
2022-10-05T07:42:31.089Z,100.00
2022-10-05T07:45:15.460Z,100.00
2022-10-05T07:47:52.539Z,100.00
2022-10-05T07:50:27.135Z,100.00
2022-10-05T07:52:59.565Z,100.00
2022-10-05T07:55:28.461Z,100.00
2022-10-05T07:58:14.897Z,100.00
2022-10-05T08:00:48.485Z,100.00
2022-10-05T08:03:22.207Z,100.00
2022-10-05T08:05:50.065Z,100.00
2022-10-05T08:08:36.397Z,100.00
2022-10-05T08:11:18.774Z,100.00
2022-10-05T08:14:11.769Z,100.00
2022-10-05T08:16:39.660Z,100.00
2022-10-05T08:19:11.568Z,100.00
2022-10-05T08:21:51.454Z,100.00
2022-10-05T08:24:49.887Z,100.00
2022-10-05T08:27:20.498Z,100.00
2022-10-05T08:29:59.277Z,100.00
2022-10-05T08:32:30.028Z,100.00
2022-10-05T08:35:28.865Z,100.00
2022-10-05T08:37:56.644Z,100.00
2022-10-05T08:40:39.404Z,100.00
2022-10-05T08:43:25.830Z,100.00
2022-10-05T08:46:02.160Z,100.00
2022-10-05T08:49:00.779Z,100.00
2022-10-05T08:51:28.421Z,100.00
2022-10-05T08:54:31.560Z,100.00
2022-10-05T08:57:11.456Z,100.00
2022-10-05T08:59:57.448Z,100.00
2022-10-05T09:02:34.044Z,100.00
2022-10-05T09:05:23.292Z,100.00
2022-10-05T09:08:09.979Z,100.00
2022-10-05T09:11:00.521Z,100.00
2022-10-05T09:13:33.011Z,100.00
2022-10-05T09:16:12.961Z,100.00
2022-10-05T09:19:07.966Z,100.00
2022-10-05T09:21:43.210Z,100.00
2022-10-05T09:24:13.900Z,100.00
2022-10-05T09:27:03.095Z,100.00
2022-10-05T09:29:49.142Z,100.00
2022-10-05T09:32:36.873Z,100.00
2022-10-05T09:35:47.210Z,100.00
2022-10-05T09:38:22.043Z,100.00
2022-10-05T09:41:08.138Z,100.00
2022-10-05T09:43:41.420Z,100.00
2022-10-05T09:46:09.250Z,100.00
2022-10-05T09:48:46.168Z,100.00
2022-10-05T09:51:41.356Z,100.00
2022-10-05T09:54:54.063Z,100.00
2022-10-05T09:57:40.557Z,100.00
2022-10-05T10:00:16.400Z,100.00
2022-10-05T10:02:50.299Z,100.00
2022-10-05T10:05:32.542Z,100.00
2022-10-05T10:08:05.791Z,100.00
2022-10-05T10:10:45.702Z,100.00
2022-10-05T10:13:31.552Z,100.00
2022-10-05T10:16:27.019Z,100.00
2022-10-05T10:19:19.593Z,100.00
2022-10-05T10:22:05.583Z,100.00
2022-10-05T10:25:01.049Z,100.00
2022-10-05T10:27:48.051Z,100.00
2022-10-05T10:30:27.431Z,100.00
2022-10-05T10:32:55.701Z,100.00
2022-10-05T10:35:26.816Z,100.00
2022-10-05T10:38:30.410Z,100.00
2022-10-05T10:41:36.010Z,100.00
2022-10-05T10:44:19.013Z,100.00
2022-10-05T10:47:02.983Z,100.00
2022-10-05T10:49:51.901Z,100.00
2022-10-05T10:52:43.940Z,100.00
2022-10-05T10:55:32.799Z,100.00
2022-10-05T10:58:31.985Z,100.00
2022-10-05T11:01:21.359Z,100.00
2022-10-05T11:04:07.832Z,100.00
2022-10-05T11:06:53.372Z,100.00
2022-10-05T11:09:57.884Z,98.59
2022-10-05T11:12:56.123Z,96.79
2022-10-05T11:15:51.857Z,98.22
2022-10-05T11:18:36.419Z,96.81
2022-10-05T11:21:31.515Z,96.46
2022-10-05T11:24:41.289Z,95.46
2022-10-05T11:27:56.874Z,94.91
2022-10-05T11:31:01.367Z,92.57
2022-10-05T11:33:44.473Z,91.38
2022-10-05T11:36:27.178Z,93.02
2022-10-05T11:39:06.882Z,92.28
2022-10-05T11:42:12.951Z,94.06
2022-10-05T11:44:45.949Z,91.82
2022-10-05T11:47:19.809Z,91.72
2022-10-05T11:49:57.241Z,92.32
2022-10-05T11:52:41.681Z,92.81
2022-10-05T11:55:18.270Z,89.87
2022-10-05T11:57:57.013Z,93.06
2022-10-05T12:00:27.953Z,91.47
2022-10-05T12:03:10.809Z,91.57
2022-10-05T12:05:44.788Z,93.21
2022-10-05T12:08:27.786Z,89.47
2022-10-05T12:11:39.481Z,89.81
2022-10-05T12:14:13.346Z,91.45
2022-10-05T12:16:51.071Z,88.99
2022-10-05T12:19:45.515Z,88.29
2022-10-05T12:22:26.321Z,86.22
2022-10-05T12:25:17.275Z,84.36
2022-10-05T12:27:47.439Z,83.48
2022-10-05T12:30:19.367Z,82.00
2022-10-05T12:33:10.316Z,79.66
2022-10-05T12:35:48.477Z,72.71
2022-10-05T12:38:29.582Z,75.36
2022-10-05T12:41:06.385Z,72.55
2022-10-05T12:43:52.425Z,68.00
2022-10-05T12:46:20.053Z,66.15
2022-10-05T12:48:59.859Z,70.30
2022-10-05T12:51:44.600Z,69.06
2022-10-05T12:54:19.053Z,64.32
2022-10-05T12:56:58.767Z,63.88
2022-10-05T12:59:32.376Z,65.64
2022-10-05T13:02:31.897Z,64.94
2022-10-05T13:05:11.858Z,64.38
2022-10-05T13:08:18.899Z,63.15
2022-10-05T13:11:22.094Z,62.84
2022-10-05T13:14:03.751Z,60.21
2022-10-05T13:16:54.919Z,60.29
2022-10-05T13:19:52.057Z,62.95
2022-10-05T13:22:35.671Z,60.41
2022-10-05T13:25:16.129Z,60.64
2022-10-05T13:27:48.349Z,60.66
2022-10-05T13:30:17.905Z,62.20
2022-10-05T13:32:59.441Z,63.09
2022-10-05T13:35:51.441Z,63.28
2022-10-05T13:38:58.240Z,64.23
2022-10-05T13:41:57.036Z,63.96
2022-10-05T13:44:35.483Z,65.49
2022-10-05T13:47:17.929Z,64.45
2022-10-05T13:50:28.472Z,63.04
2022-10-05T13:53:17.082Z,63.62
2022-10-05T13:55:47.274Z,61.15
2022-10-05T13:58:27.753Z,63.24
2022-10-05T14:01:01.424Z,61.38
2022-10-05T14:03:36.935Z,60.69
2022-10-05T14:06:15.203Z,61.06
2022-10-05T14:08:55.232Z,61.15
2022-10-05T14:11:28.320Z,59.39
2022-10-05T14:14:02.813Z,59.13
2022-10-05T14:16:32.452Z,59.21
2022-10-05T14:19:06.192Z,62.80
2022-10-05T14:21:43.701Z,62.62
2022-10-05T14:24:46.394Z,62.51
2022-10-05T14:27:31.684Z,59.51
2022-10-05T14:30:01.598Z,59.50
2022-10-05T14:32:34.601Z,60.94
2022-10-05T14:35:11.661Z,59.51
2022-10-05T14:37:57.528Z,60.09
2022-10-05T14:40:25.431Z,61.11
2022-10-05T14:42:53.335Z,62.52
2022-10-05T14:45:22.273Z,63.83
2022-10-05T14:48:07.380Z,63.83
2022-10-05T14:50:35.079Z,63.33
2022-10-05T14:53:19.982Z,65.18
2022-10-05T14:56:12.843Z,64.79
2022-10-05T14:59:15.187Z,65.67
2022-10-05T15:02:27.955Z,62.36
2022-10-05T15:05:02.068Z,62.62
2022-10-05T15:07:32.343Z,64.66
2022-10-05T15:10:03.123Z,63.69
2022-10-05T15:12:33.517Z,63.50
2022-10-05T15:15:26.771Z,62.06
2022-10-05T15:18:17.149Z,60.00
2022-10-05T15:21:24.930Z,62.22
2022-10-05T15:24:18.493Z,63.83
2022-10-05T15:27:05.259Z,64.33
2022-10-05T15:29:44.320Z,66.02
2022-10-05T15:32:20.236Z,64.37
2022-10-05T15:35:25.877Z,66.44
2022-10-05T15:38:00.938Z,66.38
2022-10-05T15:40:35.786Z,67.12
2022-10-05T15:43:20.994Z,67.97
2022-10-05T15:46:02.727Z,66.71
2022-10-05T15:48:41.311Z,67.48
2022-10-05T15:51:30.969Z,68.33
2022-10-05T15:54:42.854Z,69.44
2022-10-05T15:57:22.344Z,71.56
2022-10-05T16:00:15.209Z,73.11
2022-10-05T16:02:43.093Z,72.68
2022-10-05T16:05:57.333Z,72.78
2022-10-05T16:08:57.153Z,72.84
2022-10-05T16:11:41.846Z,73.15
2022-10-05T16:14:29.097Z,74.03
2022-10-05T16:16:59.739Z,73.95
2022-10-05T16:20:21.850Z,74.53
2022-10-05T16:23:16.585Z,76.10
2022-10-05T16:26:15.773Z,76.59
2022-10-05T16:28:46.310Z,78.54
2022-10-05T16:31:35.879Z,78.89
2022-10-05T16:34:18.803Z,80.81
2022-10-05T16:37:14.359Z,81.18
2022-10-05T16:39:51.167Z,83.24
2022-10-05T16:42:35.910Z,83.73
2022-10-05T16:45:22.515Z,83.83
2022-10-05T16:48:17.806Z,85.78
2022-10-05T16:51:14.498Z,86.50
2022-10-05T16:53:55.422Z,87.47
2022-10-05T16:56:26.278Z,88.68
2022-10-05T16:59:15.418Z,89.66
2022-10-05T17:02:06.667Z,91.29
2022-10-05T17:04:57.845Z,92.43
2022-10-05T17:08:03.996Z,93.02
2022-10-05T17:11:03.996Z,94.51
2022-10-05T17:13:40.792Z,95.27
2022-10-05T17:16:16.325Z,96.14
2022-10-05T17:19:02.204Z,95.59
2022-10-05T17:21:38.558Z,98.10
2022-10-05T17:24:12.379Z,97.19
2022-10-05T17:27:21.829Z,99.22
2022-10-05T17:29:56.755Z,100.00
2022-10-05T17:32:24.394Z,99.87
2022-10-05T17:35:04.087Z,99.81
2022-10-05T17:37:32.938Z,100.00
2022-10-05T17:40:02.880Z,100.00
2022-10-05T17:42:30.597Z,100.00
2022-10-05T17:45:22.282Z,100.00
2022-10-05T17:48:06.398Z,100.00
2022-10-05T17:51:06.714Z,100.00
2022-10-05T17:53:59.772Z,100.00
2022-10-05T17:56:27.983Z,100.00
2022-10-05T17:58:55.872Z,100.00
2022-10-05T18:01:39.781Z,100.00
2022-10-05T18:04:13.638Z,100.00
2022-10-05T18:06:53.790Z,100.00
2022-10-05T18:09:24.480Z,100.00
2022-10-05T18:12:19.216Z,100.00
2022-10-05T18:14:59.471Z,100.00
2022-10-05T18:17:54.130Z,100.00
2022-10-05T18:20:33.433Z,100.00
2022-10-05T18:23:03.968Z,100.00
2022-10-05T18:25:50.705Z,100.00
2022-10-05T18:28:20.384Z,100.00
2022-10-05T18:31:16.777Z,100.00
2022-10-05T18:33:50.566Z,100.00
2022-10-05T18:36:55.488Z,100.00
2022-10-05T18:39:46.057Z,100.00
2022-10-05T18:42:46.010Z,100.00
2022-10-05T18:45:19.507Z,100.00
2022-10-05T18:48:15.395Z,100.00
2022-10-05T18:51:13.765Z,100.00
2022-10-05T18:54:02.913Z,100.00
2022-10-05T18:56:43.586Z,100.00
2022-10-05T18:59:25.249Z,100.00
2022-10-05T19:02:12.187Z,100.00
2022-10-05T19:05:04.810Z,100.00
2022-10-05T19:07:50.939Z,100.00
2022-10-05T19:10:22.069Z,100.00
2022-10-05T19:13:14.063Z,100.00
2022-10-05T19:15:55.819Z,100.00
2022-10-05T19:18:42.579Z,100.00
2022-10-05T19:21:18.136Z,100.00
2022-10-05T19:24:29.836Z,100.00
2022-10-05T19:27:18.863Z,100.00
2022-10-05T19:29:52.541Z,100.00
2022-10-05T19:32:42.749Z,100.00
2022-10-05T19:35:26.668Z,100.00
2022-10-05T19:38:01.793Z,100.00
2022-10-05T19:40:43.344Z,100.00
2022-10-05T19:43:27.340Z,100.00
2022-10-05T19:46:00.212Z,100.00
2022-10-05T19:48:45.628Z,100.00
2022-10-05T19:51:17.177Z,100.00
2022-10-05T19:53:47.976Z,100.00
2022-10-05T19:56:35.386Z,100.00
2022-10-05T19:59:14.352Z,100.00
2022-10-05T20:01:44.797Z,100.00
2022-10-05T20:04:12.667Z,100.00
2022-10-05T20:06:40.842Z,100.00
2022-10-05T20:09:22.367Z,100.00
2022-10-05T20:11:51.927Z,100.00
2022-10-05T20:14:32.533Z,100.00
2022-10-05T20:17:45.515Z,100.00
2022-10-05T20:20:35.156Z,100.00
2022-10-05T20:23:31.545Z,100.00
2022-10-05T20:26:17.739Z,100.00
2022-10-05T20:28:45.700Z,100.00
2022-10-05T20:31:15.496Z,100.00
2022-10-05T20:33:43.296Z,100.00
2022-10-05T20:36:11.062Z,100.00
2022-10-05T20:38:41.198Z,100.00
2022-10-05T20:41:09.355Z,100.00
2022-10-05T20:43:40.111Z,100.00
2022-10-05T20:46:08.653Z,100.00
2022-10-05T20:48:37.343Z,100.00
2022-10-05T20:51:05.410Z,100.00
2022-10-05T20:53:33.293Z,100.00
2022-10-05T20:56:03.622Z,100.00
2022-10-05T20:58:31.710Z,100.00
2022-10-05T21:01:19.508Z,100.00
2022-10-05T21:03:47.807Z,100.00
2022-10-05T21:06:15.640Z,100.00
2022-10-05T21:08:43.545Z,100.00
2022-10-05T21:11:11.425Z,100.00
2022-10-05T21:13:43.609Z,100.00
2022-10-05T21:16:15.262Z,100.00
2022-10-05T21:18:43.755Z,100.00
2022-10-05T21:21:12.166Z,100.00
2022-10-05T21:23:40.020Z,100.00
2022-10-05T21:26:09.166Z,100.00
2022-10-05T21:28:37.106Z,100.00
2022-10-05T21:31:04.955Z,100.00
2022-10-05T21:33:32.880Z,100.00
2022-10-05T21:36:03.133Z,100.00
2022-10-05T21:38:31.262Z,100.00
2022-10-05T21:40:59.246Z,100.00
2022-10-05T21:43:29.182Z,100.00
2022-10-05T21:45:57.553Z,100.00
2022-10-05T21:48:26.195Z,100.00
2022-10-05T21:50:54.554Z,100.00
2022-10-05T21:53:24.553Z,100.00
2022-10-05T21:55:52.549Z,100.00
2022-10-05T21:58:20.815Z,100.00
2022-10-05T22:00:48.603Z,100.00
2022-10-05T22:03:16.580Z,100.00
2022-10-05T22:05:44.606Z,100.00
2022-10-05T22:08:31.690Z,100.00
2022-10-05T22:11:02.832Z,100.00
2022-10-05T22:13:30.647Z,100.00
2022-10-05T22:15:58.846Z,100.00
2022-10-05T22:18:27.961Z,100.00
2022-10-05T22:20:55.774Z,100.00
2022-10-05T22:23:23.546Z,100.00
2022-10-05T22:25:51.271Z,100.00
2022-10-05T22:28:19.056Z,100.00
2022-10-05T22:30:47.258Z,100.00
2022-10-05T22:33:15.186Z,100.00
2022-10-05T22:35:42.859Z,100.00
2022-10-05T22:38:10.599Z,100.00
2022-10-05T22:40:38.457Z,100.00
2022-10-05T22:43:06.209Z,100.00
2022-10-05T22:45:34.009Z,100.00
2022-10-05T22:48:01.986Z,100.00
2022-10-05T22:50:29.832Z,100.00
2022-10-05T22:52:57.869Z,100.00
2022-10-05T22:55:26.264Z,100.00
2022-10-05T22:57:53.972Z,100.00
2022-10-05T23:00:27.589Z,100.00
2022-10-05T23:02:59.147Z,100.00
2022-10-05T23:05:26.939Z,100.00
2022-10-05T23:07:54.682Z,100.00
2022-10-05T23:10:22.451Z,100.00
2022-10-05T23:13:00.740Z,100.00
2022-10-05T23:15:29.056Z,100.00
2022-10-05T23:17:58.500Z,100.00
2022-10-05T23:20:27.113Z,100.00
2022-10-05T23:22:54.893Z,100.00
2022-10-05T23:25:23.383Z,100.00
2022-10-05T23:27:51.183Z,100.00
2022-10-05T23:30:19.048Z,100.00
2022-10-05T23:32:46.851Z,100.00
2022-10-05T23:35:14.753Z,100.00
2022-10-05T23:37:43.917Z,100.00
2022-10-05T23:40:13.346Z,100.00
2022-10-05T23:42:41.655Z,100.00
2022-10-05T23:45:10.750Z,100.00
2022-10-05T23:47:38.977Z,100.00
2022-10-05T23:50:08.090Z,100.00
2022-10-05T23:52:36.677Z,100.00
2022-10-05T23:55:05.581Z,100.00
2022-10-05T23:57:33.390Z,100.00
